Clarkdale, Arizona
Current Conditions -  °F | °C
As of 9:15 AM on Thursday 27 Nov 2014 (Local Time) from KSEZ Reporting Station
Clear Clear  
Wind Chill: 59°   Ceiling: Unl
Heat Index: 59°   Visibility: 10mi
Dew Point: 19°   Wind: 5mph
Humidity: 22%   Direction: 60°ENE
Pressure: 30.4"   Gusts: NA
Location:  34.77°N, 112.06°W
Report Text: KSEZ 271615Z AUTO 06004KT 10SM CLR 15/M07 A3040 RMK AO2
Loading
Personal Weather Stations






























Interactive Weather Map New forecast layout! Learn more

10-Day Weather Forecast

Advertisements
Track Severe Weather on mobile